Ackermanville, PA

2:00 AM EST on January 27, 2015 (GMT -0500)
Andover | Change Station
CLOSE
Current Station
Airport
Location: Andover,
Elevation: 581 ft
Nearby Weather Stations
Active Advisory: Winter Weather Advisory Active Notice: Public Information Statement

Elev 581 ft 41.01 °N, 74.74 °W | Updated 6 minutes ago

Overcast
Overcast
21 °F
Feels Like 12 °F
N
7
Wind Variable Wind from Variable
Gusts 18 mph

Today
High -- | Low -- °F
--% Chance of Precip.
Yesterday
High -- | Low -- °F
Precip. -- in
7:15 AM 5:11 PM
Waxing Crescent, 51% visible
Pressure 29.75 in
Visibility -9999.0 miles
Clouds
Windchill 12 °F
Dew Point 15 °F
Humidity 78%
Rainfall 0.00 in
Snow Depth Not available.
UV Not available.
Pollen .10 out of 12
Air Quality Not available.
Flu Activity Not available.
METAR K12N 270654Z AUTO VRB06G16KT M06/M09 A2969 RMK AO1 SLP072 T10611094 $

More Conditions Fewer Conditions

Pressure 29.75 in
Visibility -9999.0 miles
Clouds
Windchill 12 °F
Dew Point 15 °F
Humidity 78%
Rainfall 0.00 in
Snow Depth Not available.
UV Not available.
Pollen .10 out of 12
Air Quality Not available.
Flu Activity Not available.
METAR K12N 270654Z AUTO VRB06G16KT M06/M09 A2969 RMK AO1 SLP072 T10611094 $

More Conditions Fewer Conditions

10-Day Weather Forecast

Almanac

Astronomy

Jan. 27, 2015 Rise Set
Actual Time
Civil Twilight
Nautical Twilight
Astronomical Twilight
Moon
Length of Visible Light
Length of Day
Tomorrow will be .
, % of the Moon is Illuminated

Today's Extremes

State Highs State Lows

Community

WunderPhotos

Upload Photos

1,790,544 photos uploaded!

WunderBlogs® & News

Nearby

Air Quality

  Air Quality AQ Index Pollutant
Not available.

Snow Depth

Station Depth Elevation

Earthquake Activity

City Distance Mag. Time & Date
Minimum magnitude displayed is 2.5.

Coastal Water Temperatures

Place Temperature

Nearby Weather Stations